sensor_id;sensor_type;location;lat;lon;timestamp;P1;durP1;ratioP1;P2;durP2;ratioP2
44822;SDS011;51097;51.984;5.650;2022-12-18T00:01:30;63.75;;;30.20;;
44822;SDS011;51097;51.984;5.650;2022-12-18T00:03:59;79.53;;;31.73;;
44822;SDS011;51097;51.984;5.650;2022-12-18T00:06:27;63.65;;;30.77;;
44822;SDS011;51097;51.984;5.650;2022-12-18T00:08:54;73.90;;;34.30;;
44822;SDS011;51097;51.984;5.650;2022-12-18T00:11:22;71.78;;;33.17;;
44822;SDS011;51097;51.984;5.650;2022-12-18T00:13:49;71.55;;;35.08;;
44822;SDS011;51097;51.984;5.650;2022-12-18T00:16:16;66.18;;;31.45;;
44822;SDS011;51097;51.984;5.650;2022-12-18T00:18:46;80.97;;;36.30;;
44822;SDS011;51097;51.984;5.650;2022-12-18T00:21:13;83.68;;;34.88;;
44822;SDS011;51097;51.984;5.650;2022-12-18T00:23:40;67.88;;;31.95;;
44822;SDS011;51097;51.984;5.650;2022-12-18T00:26:07;79.30;;;37.85;;
44822;SDS011;51097;51.984;5.650;2022-12-18T00:28:41;65.93;;;31.75;;
44822;SDS011;51097;51.984;5.650;2022-12-18T00:31:08;70.10;;;32.42;;
44822;SDS011;51097;51.984;5.650;2022-12-18T00:33:35;65.05;;;30.38;;
44822;SDS011;51097;51.984;5.650;2022-12-18T00:36:02;59.70;;;30.17;;
44822;SDS011;51097;51.984;5.650;2022-12-18T00:38:29;77.38;;;31.90;;
44822;SDS011;51097;51.984;5.650;2022-12-18T00:40:55;64.82;;;31.25;;
44822;SDS011;51097;51.984;5.650;2022-12-18T00:43:20;65.25;;;30.65;;
44822;SDS011;51097;51.984;5.650;2022-12-18T00:45:46;66.90;;;32.45;;
44822;SDS011;51097;51.984;5.650;2022-12-18T00:48:11;62.03;;;29.92;;
44822;SDS011;51097;51.984;5.650;2022-12-18T00:50:37;69.00;;;31.02;;
44822;SDS011;51097;51.984;5.650;2022-12-18T00:53:03;65.38;;;29.60;;
44822;SDS011;51097;51.984;5.650;2022-12-18T00:55:28;62.28;;;30.33;;
44822;SDS011;51097;51.984;5.650;2022-12-18T00:57:54;57.75;;;30.00;;
44822;SDS011;51097;51.984;5.650;2022-12-18T01:00:20;58.90;;;30.25;;
44822;SDS011;51097;51.984;5.650;2022-12-18T01:02:45;67.20;;;31.58;;
44822;SDS011;51097;51.984;5.650;2022-12-18T01:05:11;65.43;;;30.77;;
44822;SDS011;51097;51.984;5.650;2022-12-18T01:07:38;64.18;;;29.17;;
44822;SDS011;51097;51.984;5.650;2022-12-18T01:10:04;54.60;;;28.58;;
44822;SDS011;51097;51.984;5.650;2022-12-18T01:12:31;60.22;;;28.50;;
44822;SDS011;51097;51.984;5.650;2022-12-18T01:14:57;59.58;;;27.70;;
44822;SDS011;51097;51.984;5.650;2022-12-18T01:17:23;56.40;;;29.55;;
44822;SDS011;51097;51.984;5.650;2022-12-18T01:19:48;63.13;;;29.30;;
44822;SDS011;51097;51.984;5.650;2022-12-18T01:22:14;61.58;;;27.50;;
44822;SDS011;51097;51.984;5.650;2022-12-18T01:24:40;60.13;;;30.10;;
44822;SDS011;51097;51.984;5.650;2022-12-18T01:27:05;59.58;;;30.45;;
44822;SDS011;51097;51.984;5.650;2022-12-18T01:29:31;58.88;;;28.83;;
44822;SDS011;51097;51.984;5.650;2022-12-18T01:31:57;48.67;;;26.70;;
44822;SDS011;51097;51.984;5.650;2022-12-18T01:34:23;63.17;;;30.30;;
44822;SDS011;51097;51.984;5.650;2022-12-18T01:36:48;60.03;;;27.67;;
44822;SDS011;51097;51.984;5.650;2022-12-18T01:39:17;52.45;;;29.15;;
44822;SDS011;51097;51.984;5.650;2022-12-18T01:41:43;63.42;;;28.65;;
44822;SDS011;51097;51.984;5.650;2022-12-18T01:47:34;54.42;;;27.63;;
44822;SDS011;51097;51.984;5.650;2022-12-18T01:50:13;54.35;;;27.33;;
44822;SDS011;51097;51.984;5.650;2022-12-18T01:55:31;53.10;;;25.98;;
44822;SDS011;51097;51.984;5.650;2022-12-18T01:58:02;48.30;;;25.45;;
44822;SDS011;51097;51.984;5.650;2022-12-18T02:00:28;45.75;;;26.63;;
44822;SDS011;51097;51.984;5.650;2022-12-18T02:02:54;51.22;;;27.63;;
44822;SDS011;51097;51.984;5.650;2022-12-18T02:05:35;44.90;;;24.63;;
44822;SDS011;51097;51.984;5.650;2022-12-18T02:10:45;50.53;;;26.45;;
44822;SDS011;51097;51.984;5.650;2022-12-18T02:16:29;43.50;;;24.35;;
44822;SDS011;51097;51.984;5.650;2022-12-18T02:19:14;47.72;;;22.33;;
44822;SDS011;51097;51.984;5.650;2022-12-18T02:21:59;51.75;;;25.75;;
44822;SDS011;51097;51.984;5.650;2022-12-18T02:24:43;44.40;;;24.70;;
44822;SDS011;51097;51.984;5.650;2022-12-18T02:27:13;46.70;;;24.13;;
44822;SDS011;51097;51.984;5.650;2022-12-18T02:29:41;42.42;;;23.42;;
44822;SDS011;51097;51.984;5.650;2022-12-18T02:32:14;46.80;;;23.55;;
44822;SDS011;51097;51.984;5.650;2022-12-18T02:34:42;51.63;;;25.23;;
44822;SDS011;51097;51.984;5.650;2022-12-18T02:37:11;43.03;;;23.52;;
44822;SDS011;51097;51.984;5.650;2022-12-18T02:42:21;41.55;;;22.90;;
44822;SDS011;51097;51.984;5.650;2022-12-18T02:44:48;43.70;;;23.80;;
44822;SDS011;51097;51.984;5.650;2022-12-18T02:47:16;40.50;;;22.77;;
44822;SDS011;51097;51.984;5.650;2022-12-18T02:49:57;46.47;;;23.95;;
44822;SDS011;51097;51.984;5.650;2022-12-18T02:55:44;43.85;;;21.52;;
44822;SDS011;51097;51.984;5.650;2022-12-18T02:58:59;40.22;;;20.52;;
44822;SDS011;51097;51.984;5.650;2022-12-18T03:04:22;39.72;;;21.55;;
44822;SDS011;51097;51.984;5.650;2022-12-18T03:06:53;41.67;;;22.42;;
44822;SDS011;51097;51.984;5.650;2022-12-18T03:09:28;38.10;;;21.15;;
44822;SDS011;51097;51.984;5.650;2022-12-18T03:12:06;37.85;;;19.50;;
44822;SDS011;51097;51.984;5.650;2022-12-18T03:14:47;43.83;;;21.77;;
44822;SDS011;51097;51.984;5.650;2022-12-18T03:17:17;34.35;;;20.48;;
44822;SDS011;51097;51.984;5.650;2022-12-18T03:19:45;31.63;;;19.20;;
44822;SDS011;51097;51.984;5.650;2022-12-18T03:22:12;34.60;;;18.55;;
44822;SDS011;51097;51.984;5.650;2022-12-18T03:24:40;36.05;;;20.58;;
44822;SDS011;51097;51.984;5.650;2022-12-18T03:27:07;32.25;;;19.35;;
44822;SDS011;51097;51.984;5.650;2022-12-18T03:29:43;39.88;;;21.27;;
44822;SDS011;51097;51.984;5.650;2022-12-18T03:32:20;37.10;;;21.40;;
44822;SDS011;51097;51.984;5.650;2022-12-18T03:34:52;32.83;;;18.10;;
44822;SDS011;51097;51.984;5.650;2022-12-18T03:39:47;34.03;;;19.13;;
44822;SDS011;51097;51.984;5.650;2022-12-18T03:50:19;32.97;;;18.42;;
44822;SDS011;51097;51.984;5.650;2022-12-18T03:53:00;30.67;;;18.67;;
44822;SDS011;51097;51.984;5.650;2022-12-18T03:55:37;35.10;;;17.08;;
44822;SDS011;51097;51.984;5.650;2022-12-18T03:58:03;36.55;;;20.08;;
44822;SDS011;51097;51.984;5.650;2022-12-18T04:00:30;27.77;;;15.75;;
44822;SDS011;51097;51.984;5.650;2022-12-18T04:02:57;31.70;;;19.10;;
44822;SDS011;51097;51.984;5.650;2022-12-18T04:05:26;31.20;;;16.63;;
44822;SDS011;51097;51.984;5.650;2022-12-18T04:07:53;30.52;;;17.13;;
44822;SDS011;51097;51.984;5.650;2022-12-18T04:10:21;31.73;;;18.02;;
44822;SDS011;51097;51.984;5.650;2022-12-18T04:12:46;34.28;;;18.88;;
44822;SDS011;51097;51.984;5.650;2022-12-18T04:15:12;37.05;;;18.73;;
44822;SDS011;51097;51.984;5.650;2022-12-18T04:17:39;31.58;;;17.20;;
44822;SDS011;51097;51.984;5.650;2022-12-18T04:20:12;26.95;;;16.85;;
44822;SDS011;51097;51.984;5.650;2022-12-18T04:22:37;33.90;;;19.08;;
44822;SDS011;51097;51.984;5.650;2022-12-18T04:25:03;39.90;;;19.98;;
44822;SDS011;51097;51.984;5.650;2022-12-18T04:27:29;30.98;;;16.55;;
44822;SDS011;51097;51.984;5.650;2022-12-18T04:29:54;28.20;;;16.63;;
44822;SDS011;51097;51.984;5.650;2022-12-18T04:32:20;30.83;;;18.23;;
44822;SDS011;51097;51.984;5.650;2022-12-18T04:34:45;32.40;;;18.15;;
44822;SDS011;51097;51.984;5.650;2022-12-18T04:37:11;32.08;;;17.92;;
44822;SDS011;51097;51.984;5.650;2022-12-18T04:39:37;30.75;;;18.02;;
44822;SDS011;51097;51.984;5.650;2022-12-18T04:42:02;33.97;;;18.55;;
44822;SDS011;51097;51.984;5.650;2022-12-18T04:44:28;28.73;;;17.70;;
44822;SDS011;51097;51.984;5.650;2022-12-18T04:46:53;27.20;;;15.52;;
44822;SDS011;51097;51.984;5.650;2022-12-18T04:49:19;25.73;;;15.95;;
44822;SDS011;51097;51.984;5.650;2022-12-18T04:51:44;31.02;;;17.63;;
44822;SDS011;51097;51.984;5.650;2022-12-18T04:54:10;30.83;;;17.08;;
44822;SDS011;51097;51.984;5.650;2022-12-18T04:56:35;30.38;;;17.73;;
44822;SDS011;51097;51.984;5.650;2022-12-18T04:59:01;34.05;;;18.90;;
44822;SDS011;51097;51.984;5.650;2022-12-18T05:01:26;32.08;;;16.85;;
44822;SDS011;51097;51.984;5.650;2022-12-18T05:03:52;29.48;;;17.00;;
44822;SDS011;51097;51.984;5.650;2022-12-18T05:06:17;32.65;;;18.17;;
44822;SDS011;51097;51.984;5.650;2022-12-18T05:08:43;27.05;;;16.90;;
44822;SDS011;51097;51.984;5.650;2022-12-18T05:11:10;29.70;;;17.52;;
44822;SDS011;51097;51.984;5.650;2022-12-18T05:13:40;28.38;;;17.00;;
44822;SDS011;51097;51.984;5.650;2022-12-18T05:16:06;26.60;;;16.00;;
44822;SDS011;51097;51.984;5.650;2022-12-18T05:18:32;24.88;;;14.85;;
44822;SDS011;51097;51.984;5.650;2022-12-18T05:20:57;27.98;;;15.95;;
44822;SDS011;51097;51.984;5.650;2022-12-18T05:23:24;23.80;;;14.98;;
44822;SDS011;51097;51.984;5.650;2022-12-18T05:28:19;27.13;;;16.27;;
44822;SDS011;51097;51.984;5.650;2022-12-18T05:30:49;23.08;;;14.70;;
44822;SDS011;51097;51.984;5.650;2022-12-18T05:33:16;25.77;;;16.10;;
44822;SDS011;51097;51.984;5.650;2022-12-18T05:35:43;32.42;;;16.30;;
44822;SDS011;51097;51.984;5.650;2022-12-18T05:38:09;26.52;;;16.52;;
44822;SDS011;51097;51.984;5.650;2022-12-18T05:40:34;28.40;;;15.35;;
44822;SDS011;51097;51.984;5.650;2022-12-18T05:43:01;23.88;;;15.23;;
44822;SDS011;51097;51.984;5.650;2022-12-18T05:45:29;23.90;;;15.00;;
44822;SDS011;51097;51.984;5.650;2022-12-18T05:47:55;26.83;;;14.95;;
44822;SDS011;51097;51.984;5.650;2022-12-18T05:50:20;27.40;;;16.13;;
44822;SDS011;51097;51.984;5.650;2022-12-18T05:52:46;23.55;;;14.98;;
44822;SDS011;51097;51.984;5.650;2022-12-18T05:55:12;23.75;;;14.80;;
44822;SDS011;51097;51.984;5.650;2022-12-18T05:57:37;20.75;;;14.95;;
44822;SDS011;51097;51.984;5.650;2022-12-18T06:00:03;26.27;;;14.73;;
44822;SDS011;51097;51.984;5.650;2022-12-18T06:02:29;24.33;;;15.48;;
44822;SDS011;51097;51.984;5.650;2022-12-18T06:04:54;22.05;;;13.27;;
44822;SDS011;51097;51.984;5.650;2022-12-18T06:07:20;20.45;;;14.60;;
44822;SDS011;51097;51.984;5.650;2022-12-18T06:09:45;25.55;;;15.25;;
44822;SDS011;51097;51.984;5.650;2022-12-18T06:12:11;23.48;;;15.02;;
44822;SDS011;51097;51.984;5.650;2022-12-18T06:14:36;23.05;;;13.55;;
44822;SDS011;51097;51.984;5.650;2022-12-18T06:17:02;30.48;;;14.95;;
44822;SDS011;51097;51.984;5.650;2022-12-18T06:19:28;20.80;;;15.05;;
44822;SDS011;51097;51.984;5.650;2022-12-18T06:21:53;25.15;;;15.18;;
44822;SDS011;51097;51.984;5.650;2022-12-18T06:24:19;20.90;;;14.73;;
44822;SDS011;51097;51.984;5.650;2022-12-18T06:26:45;28.45;;;15.90;;
44822;SDS011;51097;51.984;5.650;2022-12-18T06:29:10;29.05;;;15.75;;
44822;SDS011;51097;51.984;5.650;2022-12-18T06:31:36;23.95;;;15.65;;
44822;SDS011;51097;51.984;5.650;2022-12-18T06:34:02;24.42;;;15.48;;
44822;SDS011;51097;51.984;5.650;2022-12-18T06:36:28;26.50;;;16.45;;
44822;SDS011;51097;51.984;5.650;2022-12-18T06:38:54;22.00;;;14.70;;
44822;SDS011;51097;51.984;5.650;2022-12-18T06:41:21;24.35;;;15.18;;
44822;SDS011;51097;51.984;5.650;2022-12-18T06:43:47;26.42;;;15.45;;
44822;SDS011;51097;51.984;5.650;2022-12-18T06:46:12;26.23;;;16.05;;
44822;SDS011;51097;51.984;5.650;2022-12-18T06:48:38;21.15;;;13.77;;
44822;SDS011;51097;51.984;5.650;2022-12-18T06:51:04;34.85;;;16.52;;
44822;SDS011;51097;51.984;5.650;2022-12-18T06:53:31;24.67;;;15.45;;
44822;SDS011;51097;51.984;5.650;2022-12-18T06:56:03;22.65;;;14.38;;
44822;SDS011;51097;51.984;5.650;2022-12-18T06:58:31;22.67;;;14.45;;
44822;SDS011;51097;51.984;5.650;2022-12-18T07:01:00;27.88;;;14.98;;
44822;SDS011;51097;51.984;5.650;2022-12-18T07:03:27;26.40;;;16.20;;
44822;SDS011;51097;51.984;5.650;2022-12-18T07:05:53;27.23;;;16.75;;
44822;SDS011;51097;51.984;5.650;2022-12-18T07:08:18;27.23;;;16.58;;
44822;SDS011;51097;51.984;5.650;2022-12-18T07:10:44;25.73;;;15.52;;
44822;SDS011;51097;51.984;5.650;2022-12-18T07:13:09;22.77;;;14.13;;
44822;SDS011;51097;51.984;5.650;2022-12-18T07:15:35;24.70;;;14.70;;
44822;SDS011;51097;51.984;5.650;2022-12-18T07:18:01;27.45;;;16.42;;
44822;SDS011;51097;51.984;5.650;2022-12-18T07:20:26;26.38;;;15.85;;
44822;SDS011;51097;51.984;5.650;2022-12-18T07:22:52;29.10;;;15.75;;
44822;SDS011;51097;51.984;5.650;2022-12-18T07:25:18;19.85;;;14.48;;
44822;SDS011;51097;51.984;5.650;2022-12-18T07:27:43;24.73;;;16.23;;
44822;SDS011;51097;51.984;5.650;2022-12-18T07:30:09;23.10;;;15.43;;
44822;SDS011;51097;51.984;5.650;2022-12-18T07:32:35;21.35;;;15.55;;
44822;SDS011;51097;51.984;5.650;2022-12-18T07:35:00;23.55;;;15.32;;
44822;SDS011;51097;51.984;5.650;2022-12-18T07:37:26;18.55;;;12.80;;
44822;SDS011;51097;51.984;5.650;2022-12-18T07:39:52;21.67;;;14.30;;
44822;SDS011;51097;51.984;5.650;2022-12-18T07:42:17;26.90;;;15.05;;
44822;SDS011;51097;51.984;5.650;2022-12-18T07:44:55;21.10;;;14.75;;
44822;SDS011;51097;51.984;5.650;2022-12-18T07:47:21;25.08;;;15.38;;
44822;SDS011;51097;51.984;5.650;2022-12-18T07:49:46;26.10;;;14.82;;
44822;SDS011;51097;51.984;5.650;2022-12-18T07:52:12;25.00;;;16.33;;
44822;SDS011;51097;51.984;5.650;2022-12-18T07:54:38;21.05;;;14.63;;
44822;SDS011;51097;51.984;5.650;2022-12-18T07:57:04;23.55;;;14.90;;
44822;SDS011;51097;51.984;5.650;2022-12-18T07:59:29;20.58;;;13.52;;
44822;SDS011;51097;51.984;5.650;2022-12-18T08:01:55;27.08;;;15.90;;
44822;SDS011;51097;51.984;5.650;2022-12-18T08:04:20;23.20;;;14.25;;
44822;SDS011;51097;51.984;5.650;2022-12-18T08:06:46;26.00;;;15.73;;
44822;SDS011;51097;51.984;5.650;2022-12-18T08:09:11;23.75;;;14.65;;
44822;SDS011;51097;51.984;5.650;2022-12-18T08:11:37;22.30;;;15.30;;
44822;SDS011;51097;51.984;5.650;2022-12-18T08:14:03;22.35;;;13.82;;
44822;SDS011;51097;51.984;5.650;2022-12-18T08:16:28;21.58;;;13.75;;
44822;SDS011;51097;51.984;5.650;2022-12-18T08:18:55;24.27;;;15.55;;
44822;SDS011;51097;51.984;5.650;2022-12-18T08:21:22;20.77;;;12.85;;
44822;SDS011;51097;51.984;5.650;2022-12-18T08:23:52;25.85;;;15.40;;
44822;SDS011;51097;51.984;5.650;2022-12-18T08:26:19;20.00;;;14.30;;
44822;SDS011;51097;51.984;5.650;2022-12-18T08:28:45;21.17;;;14.15;;
44822;SDS011;51097;51.984;5.650;2022-12-18T08:31:11;22.13;;;14.07;;
44822;SDS011;51097;51.984;5.650;2022-12-18T08:33:38;18.73;;;12.15;;
44822;SDS011;51097;51.984;5.650;2022-12-18T08:36:05;20.42;;;13.77;;
44822;SDS011;51097;51.984;5.650;2022-12-18T08:38:31;23.40;;;15.20;;
44822;SDS011;51097;51.984;5.650;2022-12-18T08:41:01;21.15;;;13.98;;
44822;SDS011;51097;51.984;5.650;2022-12-18T08:43:28;23.38;;;12.90;;
44822;SDS011;51097;51.984;5.650;2022-12-18T08:46:12;23.27;;;13.98;;
44822;SDS011;51097;51.984;5.650;2022-12-18T08:48:38;19.95;;;12.07;;
44822;SDS011;51097;51.984;5.650;2022-12-18T08:51:03;25.60;;;13.75;;
44822;SDS011;51097;51.984;5.650;2022-12-18T08:53:30;20.77;;;12.85;;
44822;SDS011;51097;51.984;5.650;2022-12-18T08:55:56;22.27;;;13.18;;
44822;SDS011;51097;51.984;5.650;2022-12-18T08:58:22;17.13;;;11.00;;
44822;SDS011;51097;51.984;5.650;2022-12-18T09:00:47;17.23;;;11.95;;
44822;SDS011;51097;51.984;5.650;2022-12-18T09:03:16;22.48;;;12.15;;
44822;SDS011;51097;51.984;5.650;2022-12-18T09:05:45;19.63;;;10.95;;
44822;SDS011;51097;51.984;5.650;2022-12-18T09:08:11;19.15;;;12.82;;
44822;SDS011;51097;51.984;5.650;2022-12-18T09:10:43;20.27;;;13.93;;
44822;SDS011;51097;51.984;5.650;2022-12-18T09:13:11;20.02;;;12.20;;
44822;SDS011;51097;51.984;5.650;2022-12-18T09:15:43;20.45;;;11.88;;
44822;SDS011;51097;51.984;5.650;2022-12-18T09:18:11;19.15;;;11.23;;
44822;SDS011;51097;51.984;5.650;2022-12-18T09:20:38;21.15;;;12.13;;
44822;SDS011;51097;51.984;5.650;2022-12-18T09:23:04;19.50;;;12.27;;
44822;SDS011;51097;51.984;5.650;2022-12-18T09:25:30;19.73;;;12.50;;
44822;SDS011;51097;51.984;5.650;2022-12-18T09:30:30;14.32;;;9.73;;
44822;SDS011;51097;51.984;5.650;2022-12-18T09:32:58;18.40;;;11.55;;
44822;SDS011;51097;51.984;5.650;2022-12-18T09:35:24;22.75;;;13.02;;
44822;SDS011;51097;51.984;5.650;2022-12-18T09:37:49;19.85;;;12.18;;
44822;SDS011;51097;51.984;5.650;2022-12-18T09:40:19;17.35;;;11.18;;
44822;SDS011;51097;51.984;5.650;2022-12-18T09:42:48;18.42;;;11.40;;
44822;SDS011;51097;51.984;5.650;2022-12-18T09:45:18;23.05;;;12.80;;
44822;SDS011;51097;51.984;5.650;2022-12-18T09:47:45;18.17;;;12.82;;
44822;SDS011;51097;51.984;5.650;2022-12-18T09:50:20;16.77;;;10.77;;
44822;SDS011;51097;51.984;5.650;2022-12-18T09:52:55;18.05;;;11.95;;
44822;SDS011;51097;51.984;5.650;2022-12-18T09:57:49;18.27;;;11.40;;
44822;SDS011;51097;51.984;5.650;2022-12-18T10:00:20;15.82;;;11.40;;
44822;SDS011;51097;51.984;5.650;2022-12-18T10:02:48;16.30;;;10.98;;
44822;SDS011;51097;51.984;5.650;2022-12-18T10:05:16;16.88;;;11.38;;
44822;SDS011;51097;51.984;5.650;2022-12-18T10:10:48;17.75;;;11.80;;
44822;SDS011;51097;51.984;5.650;2022-12-18T10:16:13;18.25;;;11.30;;
44822;SDS011;51097;51.984;5.650;2022-12-18T10:18:49;16.77;;;11.90;;
44822;SDS011;51097;51.984;5.650;2022-12-18T10:21:24;17.88;;;12.27;;
44822;SDS011;51097;51.984;5.650;2022-12-18T10:24:16;21.98;;;11.95;;
44822;SDS011;51097;51.984;5.650;2022-12-18T10:26:51;18.00;;;11.52;;
44822;SDS011;51097;51.984;5.650;2022-12-18T10:29:21;14.33;;;10.00;;
44822;SDS011;51097;51.984;5.650;2022-12-18T10:31:47;17.15;;;12.10;;
44822;SDS011;51097;51.984;5.650;2022-12-18T10:34:12;20.70;;;12.50;;
44822;SDS011;51097;51.984;5.650;2022-12-18T10:36:38;15.95;;;11.05;;
44822;SDS011;51097;51.984;5.650;2022-12-18T10:39:14;22.95;;;12.65;;
44822;SDS011;51097;51.984;5.650;2022-12-18T10:41:45;15.63;;;10.50;;
44822;SDS011;51097;51.984;5.650;2022-12-18T10:44:21;19.80;;;11.80;;
44822;SDS011;51097;51.984;5.650;2022-12-18T10:46:48;14.70;;;10.32;;
44822;SDS011;51097;51.984;5.650;2022-12-18T10:49:25;17.80;;;10.65;;
44822;SDS011;51097;51.984;5.650;2022-12-18T10:54:49;16.35;;;11.48;;
44822;SDS011;51097;51.984;5.650;2022-12-18T10:57:36;16.55;;;11.07;;
44822;SDS011;51097;51.984;5.650;2022-12-18T11:00:26;18.85;;;11.30;;
44822;SDS011;51097;51.984;5.650;2022-12-18T11:02:55;22.02;;;12.85;;
44822;SDS011;51097;51.984;5.650;2022-12-18T11:07:58;18.35;;;11.38;;
44822;SDS011;51097;51.984;5.650;2022-12-18T11:10:31;14.40;;;10.60;;
44822;SDS011;51097;51.984;5.650;2022-12-18T11:13:20;17.40;;;11.50;;
44822;SDS011;51097;51.984;5.650;2022-12-18T11:15:48;16.90;;;10.48;;
44822;SDS011;51097;51.984;5.650;2022-12-18T11:18:28;15.57;;;10.57;;
44822;SDS011;51097;51.984;5.650;2022-12-18T11:20:56;16.98;;;10.40;;
44822;SDS011;51097;51.984;5.650;2022-12-18T11:23:59;18.27;;;10.95;;
44822;SDS011;51097;51.984;5.650;2022-12-18T11:26:33;17.67;;;11.50;;
44822;SDS011;51097;51.984;5.650;2022-12-18T11:29:07;17.85;;;11.80;;
44822;SDS011;51097;51.984;5.650;2022-12-18T11:31:35;15.00;;;10.77;;
44822;SDS011;51097;51.984;5.650;2022-12-18T11:36:44;18.83;;;11.63;;
44822;SDS011;51097;51.984;5.650;2022-12-18T11:39:18;17.38;;;11.02;;
44822;SDS011;51097;51.984;5.650;2022-12-18T11:44:38;18.95;;;12.27;;
44822;SDS011;51097;51.984;5.650;2022-12-18T11:47:24;17.85;;;12.25;;
44822;SDS011;51097;51.984;5.650;2022-12-18T11:50:19;14.40;;;10.27;;
44822;SDS011;51097;51.984;5.650;2022-12-18T11:52:48;19.48;;;11.43;;
44822;SDS011;51097;51.984;5.650;2022-12-18T11:58:04;20.63;;;11.77;;
44822;SDS011;51097;51.984;5.650;2022-12-18T12:00:31;18.98;;;11.45;;
44822;SDS011;51097;51.984;5.650;2022-12-18T12:03:10;20.13;;;12.75;;
44822;SDS011;51097;51.984;5.650;2022-12-18T12:08:26;18.83;;;11.45;;
44822;SDS011;51097;51.984;5.650;2022-12-18T12:10:58;18.58;;;11.15;;
44822;SDS011;51097;51.984;5.650;2022-12-18T12:16:37;18.00;;;10.82;;
44822;SDS011;51097;51.984;5.650;2022-12-18T12:19:43;17.75;;;12.18;;
44822;SDS011;51097;51.984;5.650;2022-12-18T12:22:39;17.50;;;11.02;;
44822;SDS011;51097;51.984;5.650;2022-12-18T12:25:13;18.58;;;11.02;;
44822;SDS011;51097;51.984;5.650;2022-12-18T12:33:53;18.05;;;12.18;;
44822;SDS011;51097;51.984;5.650;2022-12-18T12:36:25;19.15;;;11.68;;
44822;SDS011;51097;51.984;5.650;2022-12-18T12:39:17;22.20;;;12.88;;
44822;SDS011;51097;51.984;5.650;2022-12-18T12:41:47;17.73;;;11.15;;
44822;SDS011;51097;51.984;5.650;2022-12-18T12:44:33;16.85;;;11.73;;
44822;SDS011;51097;51.984;5.650;2022-12-18T12:47:16;17.83;;;11.32;;
44822;SDS011;51097;51.984;5.650;2022-12-18T12:49:46;17.48;;;12.02;;
44822;SDS011;51097;51.984;5.650;2022-12-18T12:52:55;18.40;;;11.65;;
44822;SDS011;51097;51.984;5.650;2022-12-18T12:55:05;20.65;;;11.32;;
44822;SDS011;51097;51.984;5.650;2022-12-18T12:57:38;19.02;;;11.98;;
44822;SDS011;51097;51.984;5.650;2022-12-18T13:07:53;17.33;;;11.65;;
44822;SDS011;51097;51.984;5.650;2022-12-18T13:10:24;18.30;;;12.50;;
44822;SDS011;51097;51.984;5.650;2022-12-18T13:18:03;22.42;;;12.52;;
44822;SDS011;51097;51.984;5.650;2022-12-18T13:23:47;20.75;;;12.98;;
44822;SDS011;51097;51.984;5.650;2022-12-18T13:25:49;20.80;;;13.52;;
44822;SDS011;51097;51.984;5.650;2022-12-18T13:28:16;20.17;;;13.88;;
44822;SDS011;51097;51.984;5.650;2022-12-18T13:48:31;20.15;;;14.10;;
44822;SDS011;51097;51.984;5.650;2022-12-18T13:51:00;20.90;;;14.20;;
44822;SDS011;51097;51.984;5.650;2022-12-18T13:53:39;21.52;;;13.18;;
44822;SDS011;51097;51.984;5.650;2022-12-18T13:56:09;20.73;;;13.30;;
44822;SDS011;51097;51.984;5.650;2022-12-18T13:58:41;26.17;;;16.13;;
44822;SDS011;51097;51.984;5.650;2022-12-18T14:01:21;22.25;;;14.20;;
44822;SDS011;51097;51.984;5.650;2022-12-18T14:03:47;21.15;;;13.25;;
44822;SDS011;51097;51.984;5.650;2022-12-18T14:06:13;24.17;;;13.82;;
44822;SDS011;51097;51.984;5.650;2022-12-18T14:08:40;23.52;;;15.15;;
44822;SDS011;51097;51.984;5.650;2022-12-18T14:11:06;21.40;;;14.00;;
44822;SDS011;51097;51.984;5.650;2022-12-18T14:13:42;27.77;;;15.23;;
44822;SDS011;51097;51.984;5.650;2022-12-18T14:16:11;21.42;;;13.73;;
44822;SDS011;51097;51.984;5.650;2022-12-18T14:18:48;21.52;;;13.70;;
44822;SDS011;51097;51.984;5.650;2022-12-18T14:21:20;22.40;;;15.05;;
44822;SDS011;51097;51.984;5.650;2022-12-18T14:23:48;24.77;;;15.18;;
44822;SDS011;51097;51.984;5.650;2022-12-18T14:26:28;23.98;;;13.70;;
44822;SDS011;51097;51.984;5.650;2022-12-18T14:28:55;23.75;;;15.52;;
44822;SDS011;51097;51.984;5.650;2022-12-18T14:31:24;20.15;;;13.95;;
44822;SDS011;51097;51.984;5.650;2022-12-18T14:33:51;21.85;;;12.70;;
44822;SDS011;51097;51.984;5.650;2022-12-18T14:36:18;21.38;;;13.13;;
44822;SDS011;51097;51.984;5.650;2022-12-18T14:38:56;21.83;;;14.18;;
44822;SDS011;51097;51.984;5.650;2022-12-18T14:41:22;22.05;;;14.35;;
44822;SDS011;51097;51.984;5.650;2022-12-18T14:43:50;24.58;;;14.50;;
44822;SDS011;51097;51.984;5.650;2022-12-18T14:48:57;19.70;;;12.98;;
44822;SDS011;51097;51.984;5.650;2022-12-18T14:51:42;22.63;;;15.20;;
44822;SDS011;51097;51.984;5.650;2022-12-18T14:54:20;21.95;;;13.85;;
44822;SDS011;51097;51.984;5.650;2022-12-18T14:56:47;23.20;;;13.90;;
44822;SDS011;51097;51.984;5.650;2022-12-18T14:59:17;22.08;;;13.75;;
44822;SDS011;51097;51.984;5.650;2022-12-18T15:04:33;21.48;;;13.73;;
44822;SDS011;51097;51.984;5.650;2022-12-18T15:09:35;23.65;;;14.48;;
44822;SDS011;51097;51.984;5.650;2022-12-18T15:12:01;20.02;;;14.23;;
44822;SDS011;51097;51.984;5.650;2022-12-18T15:17:05;23.95;;;14.27;;
44822;SDS011;51097;51.984;5.650;2022-12-18T15:19:44;24.20;;;14.57;;
44822;SDS011;51097;51.984;5.650;2022-12-18T15:22:15;23.23;;;14.95;;
44822;SDS011;51097;51.984;5.650;2022-12-18T15:24:42;27.77;;;15.50;;
44822;SDS011;51097;51.984;5.650;2022-12-18T15:27:19;19.95;;;15.07;;
44822;SDS011;51097;51.984;5.650;2022-12-18T15:30:38;21.90;;;14.85;;
44822;SDS011;51097;51.984;5.650;2022-12-18T15:32:46;23.52;;;14.85;;
44822;SDS011;51097;51.984;5.650;2022-12-18T15:37:47;25.23;;;15.23;;
44822;SDS011;51097;51.984;5.650;2022-12-18T15:40:18;23.60;;;15.32;;
44822;SDS011;51097;51.984;5.650;2022-12-18T15:42:45;23.02;;;15.20;;
44822;SDS011;51097;51.984;5.650;2022-12-18T15:45:30;22.23;;;14.82;;
44822;SDS011;51097;51.984;5.650;2022-12-18T15:47:56;25.05;;;15.98;;
44822;SDS011;51097;51.984;5.650;2022-12-18T15:50:22;26.80;;;15.23;;
44822;SDS011;51097;51.984;5.650;2022-12-18T15:52:48;27.58;;;15.23;;
44822;SDS011;51097;51.984;5.650;2022-12-18T15:55:17;24.48;;;15.23;;
44822;SDS011;51097;51.984;5.650;2022-12-18T15:58:04;25.23;;;15.57;;
44822;SDS011;51097;51.984;5.650;2022-12-18T16:00:34;27.83;;;17.63;;
44822;SDS011;51097;51.984;5.650;2022-12-18T16:03:01;30.02;;;15.50;;
44822;SDS011;51097;51.984;5.650;2022-12-18T16:05:28;25.85;;;16.38;;
44822;SDS011;51097;51.984;5.650;2022-12-18T16:07:54;24.73;;;15.52;;
44822;SDS011;51097;51.984;5.650;2022-12-18T16:10:20;27.15;;;15.65;;
44822;SDS011;51097;51.984;5.650;2022-12-18T16:12:46;25.02;;;16.02;;
44822;SDS011;51097;51.984;5.650;2022-12-18T16:15:13;26.33;;;16.13;;
44822;SDS011;51097;51.984;5.650;2022-12-18T16:17:41;23.58;;;15.45;;
44822;SDS011;51097;51.984;5.650;2022-12-18T16:20:16;30.98;;;17.30;;
44822;SDS011;51097;51.984;5.650;2022-12-18T16:22:45;25.42;;;15.82;;
44822;SDS011;51097;51.984;5.650;2022-12-18T16:25:19;25.33;;;17.20;;
44822;SDS011;51097;51.984;5.650;2022-12-18T16:27:47;23.70;;;15.25;;
44822;SDS011;51097;51.984;5.650;2022-12-18T16:30:17;27.13;;;16.48;;
44822;SDS011;51097;51.984;5.650;2022-12-18T16:32:44;26.13;;;16.17;;